Skip Navigation LinksHome page > Weather > Current weather Skip Navigation Links

Current Weather

Honolulu Intl, Honolulu

For information only: do not use for flight planning or navigation.
Latest weather
Observation time Tuesday, March 31, 2015 12:53 AM HST
Local time Tuesday, March 31, 2015 1:20 AM HST
Flight conditions Visual Meteorological Conditions
Winds
Wind direction North (10°)
Wind speed 6 mph
Visibility 10 mi.
Sky condition
Ceiling 3,400 ft. broken clouds
Cloud layer scattered clouds 2,700 ft.
Cloud layer broken clouds 3,400 ft.
Cloud layer broken clouds 4,500 ft.
Temperature 69°F
Dewpoint 69°F
Altimeter 30.07 in.Hg
Derived measurements
Relative humidity 100%
Density altitude 826 ft.
Sea-level pressure 30.07 in.Hg
Remarks
Automated weather observing station with precipitation discriminator.
METAR PHNL 311053Z 01005KT 10SM SCT027 BKN034 BKN045 21/21 A3007 RMK AO2 SLP182 T02060206

Settings

Location code

InnerDrive.Weather 4.0.5567.0 Release CLR 4.0.30319.34014
Copyright ©2015 Inner Drive Technology. All rights reserved. Portions Copyright ©1986-2015 David Braverman.

Find weather

Site navigation


Skip Navigation Links

Place info

Page info

PayPal - The safer, easier way to pay online!

Return home.

Copyright ©2015 Inner Drive Technology. Purveyors of fine, hand-crafted computer software. Page printed 2015-03-31T11:20:08 UTC.